Time;durP1;ratioP1;P1;durP2;ratioP2;P2;SDS_P1;SDS_P2;PMS_P1;PMS_P2;Temp;Humidity;BMP_temperature;BMP_pressure;BME280_temperature;BME280_humidity;BME280_pressure;Samples;Min_cycle;Max_cycle;Signal;HPM_P1;HPM_P2
2023/04/15 00:00:06;;;;;;;4.95;2.47;;;;;;;;;;5069184;28;20478;-72
2023/04/15 00:02:32;;;;;;;5.45;2.63;;;;;;;;;;5069107;28;20135;-72
2023/04/15 00:04:58;;;;;;;6.70;2.83;;;;;;;;;;5102948;28;20040;-73
2023/04/15 00:07:24;;;;;;;6.90;2.75;;;;;;;;;;5069402;28;20483;-72
2023/04/15 00:09:53;;;;;;;3.85;2.38;;;;;;;;;;5103114;28;20090;-72
2023/04/15 00:12:20;;;;;;;3.95;2.58;;;;;;;;;;5069216;28;20076;-71
2023/04/15 00:14:46;;;;;;;5.05;2.55;;;;;;;;;;5052293;28;20041;-72
2023/04/15 00:17:12;;;;;;;4.78;2.33;;;;;;;;;;5102956;28;20476;-72
2023/04/15 00:19:39;;;;;;;5.82;3.45;;;;;;;;;;5069288;28;20405;-71
2023/04/15 00:22:05;;;;;;;5.55;3.42;;;;;;;;;;5068689;28;20052;-72
2023/04/15 00:24:32;;;;;;;4.40;2.90;;;;;;;;;;5052228;28;20044;-71
2023/04/15 00:26:58;;;;;;;5.30;3.10;;;;;;;;;;5068691;28;20499;-71
2023/04/15 00:29:24;;;;;;;5.18;3.30;;;;;;;;;;5068749;28;20572;-72
2023/04/15 00:31:51;;;;;;;5.90;3.33;;;;;;;;;;5068898;28;20052;-71
2023/04/15 00:34:17;;;;;;;5.15;3.17;;;;;;;;;;5052128;28;20049;-72
2023/04/15 00:36:43;;;;;;;5.95;3.40;;;;;;;;;;5068885;28;20117;-72
2023/04/15 00:39:09;;;;;;;4.85;3.08;;;;;;;;;;5052206;28;20052;-72
2023/04/15 00:41:38;;;;;;;5.43;3.42;;;;;;;;;;5070076;28;20063;-72
2023/04/15 00:44:05;;;;;;;5.35;3.30;;;;;;;;;;5068858;28;20040;-72
2023/04/15 00:46:33;;;;;;;4.55;2.95;;;;;;;;;;5051977;28;20040;-72
2023/04/15 00:48:59;;;;;;;3.88;2.50;;;;;;;;;;5068652;28;20088;-72
2023/04/15 00:51:26;;;;;;;4.60;2.97;;;;;;;;;;5068636;28;20044;-72
2023/04/15 00:53:52;;;;;;;5.93;3.42;;;;;;;;;;5068628;28;20041;-73
2023/04/15 00:56:20;;;;;;;6.50;3.13;;;;;;;;;;5068551;28;20480;-73
2023/04/15 00:58:46;;;;;;;6.50;3.30;;;;;;;;;;5068514;28;20510;-72
2023/04/15 01:01:12;;;;;;;6.75;3.35;;;;;;;;;;5051740;28;20531;-73
2023/04/15 01:03:39;;;;;;;4.57;3.28;;;;;;;;;;5068590;28;20044;-73
2023/04/15 01:06:05;;;;;;;7.35;4.07;;;;;;;;;;5068623;28;20048;-73
2023/04/15 01:08:31;;;;;;;;;;;;;;;;;;5052338;28;20442;-72
2023/04/15 01:10:58;;;;;;;5.75;3.40;;;;;;;;;;5051827;28;19939;-73
2023/04/15 01:13:24;;;;;;;6.13;3.67;;;;;;;;;;5085353;28;20051;-72
2023/04/15 01:15:51;;;;;;;6.43;3.90;;;;;;;;;;5068489;28;20509;-70
2023/04/15 01:18:17;;;;;;;6.40;3.60;;;;;;;;;;5068210;28;20051;-72
2023/04/15 01:20:43;;;;;;;;;;;;;;;;;;5069163;28;20098;-72
2023/04/15 01:23:10;;;;;;;4.40;3.53;;;;;;;;;;5068268;28;20332;-72
2023/04/15 01:25:37;;;;;;;4.75;2.97;;;;;;;;;;5068397;28;20056;-72
2023/04/15 01:28:03;;;;;;;4.93;3.28;;;;;;;;;;5068134;28;20082;-72
2023/04/15 01:30:33;;;;;;;4.60;2.95;;;;;;;;;;5068278;28;20052;-72
2023/04/15 01:33:00;;;;;;;4.28;3.00;;;;;;;;;;5068239;28;20102;-72
2023/04/15 01:35:26;;;;;;;3.70;2.83;;;;;;;;;;5052014;28;20052;-72
2023/04/15 01:37:53;;;;;;;;;;;;;;;;;;5052180;28;20424;-72
2023/04/15 01:40:19;;;;;;;4.70;3.40;;;;;;;;;;5071747;28;19966;-72
2023/04/15 01:42:45;;;;;;;4.95;3.50;;;;;;;;;;5055158;28;20477;-72
2023/04/15 01:45:15;;;;;;;7.13;4.20;;;;;;;;;;5055376;28;20423;-72
2023/04/15 01:47:41;;;;;;;4.90;3.30;;;;;;;;;;5072967;28;20055;-72
2023/04/15 01:50:07;;;;;;;5.32;4.10;;;;;;;;;;5105341;28;20053;-70
2023/04/15 01:52:33;;;;;;;5.03;3.50;;;;;;;;;;5071546;28;20062;-71
2023/04/15 01:54:59;;;;;;;4.70;3.50;;;;;;;;;;5071594;28;20079;-71
2023/04/15 01:57:26;;;;;;;4.38;3.33;;;;;;;;;;5071804;28;20091;-71
2023/04/15 01:59:52;;;;;;;6.45;4.18;;;;;;;;;;5054723;28;20115;-71
2023/04/15 02:02:18;;;;;;;6.03;4.50;;;;;;;;;;5071326;28;20049;-72
2023/04/15 02:04:44;;;;;;;6.43;4.32;;;;;;;;;;5054722;28;20123;-72
2023/04/15 02:07:10;;;;;;;6.72;4.43;;;;;;;;;;5071548;28;20165;-72
2023/04/15 02:09:36;;;;;;;7.13;4.20;;;;;;;;;;5071213;28;20040;-72
2023/04/15 02:12:02;;;;;;;6.43;4.50;;;;;;;;;;5071250;28;20052;-72
2023/04/15 02:14:28;;;;;;;4.70;3.95;;;;;;;;;;5071428;28;20385;-72
2023/04/15 02:16:54;;;;;;;6.15;3.53;;;;;;;;;;5071035;28;20529;-72
2023/04/15 02:19:20;;;;;;;3.90;3.47;;;;;;;;;;5071142;28;20040;-71
2023/04/15 02:21:47;;;;;;;6.25;4.50;;;;;;;;;;5071086;28;20044;-71
2023/04/15 02:24:13;;;;;;;6.25;3.70;;;;;;;;;;5070950;28;20044;-71
2023/04/15 02:26:39;;;;;;;6.20;3.17;;;;;;;;;;5070792;28;20044;-72
2023/04/15 02:29:05;;;;;;;4.82;3.53;;;;;;;;;;5070584;28;20075;-72
2023/04/15 02:31:35;;;;;;;3.75;3.17;;;;;;;;;;5070789;28;20051;-72
2023/04/15 02:34:03;;;;;;;3.35;2.67;;;;;;;;;;5054754;28;20106;-72
2023/04/15 02:36:30;;;;;;;3.08;2.40;;;;;;;;;;5070514;28;20499;-72
2023/04/15 02:38:56;;;;;;;5.18;2.70;;;;;;;;;;5071045;28;20048;-72
2023/04/15 02:41:26;;;;;;;4.72;3.15;;;;;;;;;;5070498;28;20078;-72
2023/04/15 02:43:52;;;;;;;6.38;3.45;;;;;;;;;;5070453;28;20127;-72
2023/04/15 02:46:18;;;;;;;4.60;3.60;;;;;;;;;;5070514;28;20045;-72
2023/04/15 02:48:44;;;;;;;3.20;2.67;;;;;;;;;;5070376;28;20086;-72
2023/04/15 02:51:10;;;;;;;;;;;;;;;;;;5070280;28;20149;-72
2023/04/15 02:53:36;;;;;;;4.75;3.55;;;;;;;;;;5070555;28;19921;-72
2023/04/15 02:56:02;;;;;;;6.10;3.85;;;;;;;;;;5070585;28;20048;-72
2023/04/15 02:58:28;;;;;;;6.88;4.28;;;;;;;;;;5070573;28;20041;-72
2023/04/15 03:00:55;;;;;;;4.82;3.40;;;;;;;;;;5070303;28;20094;-72
2023/04/15 03:03:21;;;;;;;;;;;;;;;;;;5070409;28;20059;-72
2023/04/15 03:05:47;;;;;;;4.57;3.35;;;;;;;;;;5053688;28;19995;-71
2023/04/15 03:08:13;;;;;;;3.75;2.60;;;;;;;;;;5070130;28;20388;-72
2023/04/15 03:10:40;;;;;;;;;;;;;;;;;;5070919;28;20040;-72
2023/04/15 03:13:06;;;;;;;7.40;5.45;;;;;;;;;;5070140;28;20007;-72
2023/04/15 03:15:32;;;;;;;8.20;5.47;;;;;;;;;;5070279;28;20056;-72
2023/04/15 03:17:58;;;;;;;9.45;6.28;;;;;;;;;;5070183;28;20037;-72
2023/04/15 03:20:24;;;;;;;5.40;4.55;;;;;;;;;;5069688;28;20079;-72
2023/04/15 03:22:50;;;;;;;6.05;3.90;;;;;;;;;;5071137;28;20037;-71
2023/04/15 03:25:16;;;;;;;4.47;3.35;;;;;;;;;;5069800;28;20503;-71
2023/04/15 03:27:42;;;;;;;4.13;2.60;;;;;;;;;;5053071;28;20048;-72
2023/04/15 03:30:09;;;;;;;3.40;2.42;;;;;;;;;;5069656;28;20051;-71
2023/04/15 03:32:35;;;;;;;4.15;3.00;;;;;;;;;;5069751;28;20075;-72
2023/04/15 03:35:01;;;;;;;4.22;2.92;;;;;;;;;;5069693;28;20048;-71
2023/04/15 03:37:27;;;;;;;4.40;3.15;;;;;;;;;;5069500;28;20045;-71
2023/04/15 03:39:53;;;;;;;5.72;3.25;;;;;;;;;;5069709;28;20399;-72
2023/04/15 03:42:19;;;;;;;6.05;4.35;;;;;;;;;;5103130;28;20372;-71
2023/04/15 03:44:45;;;;;;;7.20;5.90;;;;;;;;;;5069693;28;20419;-71
2023/04/15 03:47:11;;;;;;;7.85;5.75;;;;;;;;;;5070769;28;20349;-71
2023/04/15 03:49:37;;;;;;;9.18;5.75;;;;;;;;;;5069220;28;20057;-71
2023/04/15 03:52:03;;;;;;;6.80;4.35;;;;;;;;;;5069340;28;20131;-71
2023/04/15 03:54:29;;;;;;;6.65;4.35;;;;;;;;;;5052256;28;20113;-72
2023/04/15 03:56:56;;;;;;;5.07;3.90;;;;;;;;;;5069051;28;20169;-71
2023/04/15 03:59:22;;;;;;;4.00;2.90;;;;;;;;;;5069033;28;20045;-72
2023/04/15 04:01:48;;;;;;;3.25;2.50;;;;;;;;;;5068786;28;20048;-72
2023/04/15 04:04:15;;;;;;;3.08;2.30;;;;;;;;;;5069042;28;20369;-72
2023/04/15 04:06:41;;;;;;;;;;;;;;;;;;5069530;28;20156;-72
2023/04/15 04:09:07;;;;;;;2.97;2.35;;;;;;;;;;5069322;28;20340;-72
2023/04/15 04:11:33;;;;;;;3.28;2.50;;;;;;;;;;5069266;28;20132;-72
2023/04/15 04:13:59;;;;;;;3.05;2.08;;;;;;;;;;5068917;28;20048;-72
2023/04/15 04:16:25;;;;;;;2.65;1.98;;;;;;;;;;5068935;28;20048;-72
2023/04/15 04:18:51;;;;;;;2.60;1.90;;;;;;;;;;5070379;28;20442;-72
2023/04/15 04:21:17;;;;;;;5.65;4.30;;;;;;;;;;5068669;28;20054;-71
2023/04/15 04:23:43;;;;;;;4.50;3.55;;;;;;;;;;5068905;28;20079;-71
2023/04/15 04:26:09;;;;;;;3.70;3.00;;;;;;;;;;5068801;28;20053;-71
2023/04/15 04:28:36;;;;;;;3.42;2.78;;;;;;;;;;5068833;28;20044;-71
2023/04/15 04:31:02;;;;;;;3.25;2.55;;;;;;;;;;5068881;28;20087;-71
2023/04/15 04:33:28;;;;;;;4.25;3.15;;;;;;;;;;5068587;28;20044;-71
2023/04/15 04:35:54;;;;;;;2.72;2.05;;;;;;;;;;5052141;28;20044;-71
2023/04/15 04:38:20;;;;;;;2.60;1.92;;;;;;;;;;5068870;28;20127;-72
2023/04/15 04:40:46;;;;;;;2.78;1.88;;;;;;;;;;5068766;28;20056;-72
2023/04/15 04:43:13;;;;;;;2.25;1.60;;;;;;;;;;5068638;28;20089;-72
2023/04/15 04:45:40;;;;;;;2.40;1.70;;;;;;;;;;5068756;28;20044;-72
2023/04/15 04:48:07;;;;;;;;;;;;;;;;;;5069120;28;20040;-72
2023/04/15 04:50:33;;;;;;;2.58;1.73;;;;;;;;;;5068613;28;19969;-72
2023/04/15 04:53:00;;;;;;;2.45;1.90;;;;;;;;;;5068618;28;20150;-72
2023/04/15 04:55:26;;;;;;;;;;;;;;;;;;5052709;28;20047;-72
2023/04/15 04:57:52;;;;;;;3.15;2.17;;;;;;;;;;5051788;28;19916;-71
2023/04/15 05:00:19;;;;;;;4.57;3.42;;;;;;;;;;5068506;28;20145;-72
2023/04/15 05:02:45;;;;;;;4.68;3.63;;;;;;;;;;5068389;28;20495;-72
2023/04/15 05:05:12;;;;;;;5.47;3.65;;;;;;;;;;5068531;28;20389;-72
2023/04/15 05:07:41;;;;;;;4.53;3.33;;;;;;;;;;5051894;28;20442;-72
2023/04/15 05:10:07;;;;;;;4.38;3.30;;;;;;;;;;5052393;28;20032;-71
2023/04/15 05:12:33;;;;;;;4.10;3.10;;;;;;;;;;5068399;28;20040;-71
2023/04/15 05:14:59;;;;;;;3.70;3.08;;;;;;;;;;5072002;28;20440;-72
2023/04/15 05:17:26;;;;;;;4.57;3.10;;;;;;;;;;5072485;28;20518;-72
2023/04/15 05:19:52;;;;;;;3.75;3.00;;;;;;;;;;5072589;28;20088;-72
2023/04/15 05:22:18;;;;;;;;;;;;;;;;;;5072399;28;20093;-73
2023/04/15 05:24:44;;;;;;;3.40;2.70;;;;;;;;;;5072039;28;19924;-72
2023/04/15 05:27:11;;;;;;;4.05;2.85;;;;;;;;;;5039143;28;20167;-72
2023/04/15 05:29:37;;;;;;;3.50;2.65;;;;;;;;;;5038969;28;20530;-71
2023/04/15 05:32:03;;;;;;;4.15;3.30;;;;;;;;;;5071987;28;20048;-72
2023/04/15 05:34:29;;;;;;;6.68;4.20;;;;;;;;;;5055404;28;20049;-72
2023/04/15 05:36:55;;;;;;;5.85;4.57;;;;;;;;;;5055170;28;20089;-72
2023/04/15 05:39:21;;;;;;;6.22;4.53;;;;;;;;;;5071999;28;20052;-72
2023/04/15 05:41:47;;;;;;;8.10;5.18;;;;;;;;;;5073158;28;20076;-72
2023/04/15 05:44:13;;;;;;;6.38;4.65;;;;;;;;;;5071876;28;20055;-72
2023/04/15 05:46:39;;;;;;;5.30;4.30;;;;;;;;;;5073024;28;20043;-72
2023/04/15 05:49:05;;;;;;;6.97;4.60;;;;;;;;;;5105522;28;20052;-72
2023/04/15 05:51:32;;;;;;;4.95;4.20;;;;;;;;;;5071634;28;20083;-72
2023/04/15 05:53:58;;;;;;;4.93;4.25;;;;;;;;;;5071605;28;20484;-72
2023/04/15 05:56:27;;;;;;;7.28;5.28;;;;;;;;;;5055181;28;20101;-72
2023/04/15 05:58:54;;;;;;;5.20;4.70;;;;;;;;;;5073053;28;20048;-72
2023/04/15 06:01:20;;;;;;;6.95;5.43;;;;;;;;;;5071192;28;20533;-72
2023/04/15 06:03:46;;;;;;;7.85;5.93;;;;;;;;;;5071553;28;20588;-71
2023/04/15 06:06:12;;;;;;;10.25;7.25;;;;;;;;;;5071490;28;20033;-71
2023/04/15 06:08:38;;;;;;;7.38;6.07;;;;;;;;;;5072637;28;20048;-72
2023/04/15 06:11:04;;;;;;;8.25;6.32;;;;;;;;;;5071644;28;20044;-71
2023/04/15 06:13:30;;;;;;;;;;;;;;;;;;5071943;28;20049;-72
2023/04/15 06:15:56;;;;;;;7.07;5.45;;;;;;;;;;5071280;28;19938;-72
2023/04/15 06:18:22;;;;;;;7.93;5.90;;;;;;;;;;5054467;28;20041;-72
2023/04/15 06:20:48;;;;;;;6.57;4.90;;;;;;;;;;5070891;28;20051;-72
2023/04/15 06:23:14;;;;;;;7.80;5.45;;;;;;;;;;5070802;28;20117;-72
2023/04/15 06:25:40;;;;;;;9.32;5.95;;;;;;;;;;5071114;28;20051;-72
2023/04/15 06:28:07;;;;;;;7.95;6.28;;;;;;;;;;5071208;28;20053;-73
2023/04/15 06:30:33;;;;;;;8.85;6.25;;;;;;;;;;5037687;28;20045;-72
2023/04/15 06:32:59;;;;;;;8.63;6.47;;;;;;;;;;5072489;28;20112;-72
2023/04/15 06:35:25;;;;;;;6.43;5.05;;;;;;;;;;5054071;28;20044;-71
2023/04/15 06:37:51;;;;;;;9.13;7.20;;;;;;;;;;5054221;28;20518;-71
2023/04/15 06:40:17;;;;;;;6.93;5.38;;;;;;;;;;5054649;28;20047;-72
2023/04/15 06:42:43;;;;;;;8.25;6.50;;;;;;;;;;5070646;28;20052;-72
2023/04/15 06:45:09;;;;;;;8.18;6.07;;;;;;;;;;5070906;28;20044;-71
2023/04/15 06:47:36;;;;;;;9.55;6.78;;;;;;;;;;5070682;28;20082;-72
2023/04/15 06:50:02;;;;;;;;;;;;;;;;;;5071056;28;20097;-72
2023/04/15 06:52:28;;;;;;;6.70;5.13;;;;;;;;;;5070345;28;19920;-72
2023/04/15 06:54:55;;;;;;;6.35;4.85;;;;;;;;;;5070768;28;20063;-72
2023/04/15 06:57:21;;;;;;;6.68;5.70;;;;;;;;;;5070580;28;20078;-72
2023/04/15 06:59:47;;;;;;;7.82;5.82;;;;;;;;;;5070734;28;20032;-72
2023/04/15 07:02:13;;;;;;;5.43;4.80;;;;;;;;;;5053679;28;20041;-72
2023/04/15 07:04:39;;;;;;;;;;;;;;;;;;5070522;28;20049;-72
2023/04/15 07:07:06;;;;;;;8.27;6.10;;;;;;;;;;5070116;28;19920;-72
2023/04/15 07:09:33;;;;;;;9.25;6.30;;;;;;;;;;5071444;28;20464;-72
2023/04/15 07:11:59;;;;;;;10.43;6.43;;;;;;;;;;5104256;28;20091;-72
2023/04/15 07:14:25;;;;;;;8.15;6.28;;;;;;;;;;5070083;28;20049;-71
2023/04/15 07:16:51;;;;;;;8.13;5.53;;;;;;;;;;5070226;28;20475;-72
2023/04/15 07:19:17;;;;;;;8.50;6.25;;;;;;;;;;5069979;28;20044;-72
2023/04/15 07:21:43;;;;;;;6.05;4.65;;;;;;;;;;5103656;28;20048;-72
2023/04/15 07:24:09;;;;;;;7.68;5.40;;;;;;;;;;5053424;28;20044;-72
2023/04/15 07:26:35;;;;;;;;;;;;;;;;;;5070391;28;20066;-72
2023/04/15 07:29:01;;;;;;;6.10;4.40;;;;;;;;;;5069939;28;20371;-72
2023/04/15 07:31:28;;;;;;;6.25;4.47;;;;;;;;;;5069657;28;20048;-72
2023/04/15 07:33:54;;;;;;;7.85;4.95;;;;;;;;;;5069801;28;20046;-72
2023/04/15 07:36:20;;;;;;;7.05;4.38;;;;;;;;;;5069174;28;20048;-72
2023/04/15 07:38:46;;;;;;;7.22;4.53;;;;;;;;;;5069729;28;20052;-71
2023/04/15 07:41:12;;;;;;;;;;;;;;;;;;5070179;28;20094;-71
2023/04/15 07:43:38;;;;;;;5.18;3.97;;;;;;;;;;5069504;28;20330;-72
2023/04/15 07:46:04;;;;;;;6.72;4.65;;;;;;;;;;5052983;28;20036;-71
2023/04/15 07:48:30;;;;;;;7.28;4.22;;;;;;;;;;5069277;28;20064;-72
2023/04/15 07:50:56;;;;;;;5.07;3.80;;;;;;;;;;5069405;28;20183;-71
2023/04/15 07:53:22;;;;;;;6.55;4.20;;;;;;;;;;5052904;28;20041;-71
2023/04/15 07:55:49;;;;;;;8.05;5.18;;;;;;;;;;5069666;28;20045;-72
2023/04/15 07:58:16;;;;;;;8.18;5.10;;;;;;;;;;5069683;28;20044;-72
2023/04/15 08:00:42;;;;;;;9.82;5.30;;;;;;;;;;5070640;28;20055;-72
2023/04/15 08:03:08;;;;;;;6.97;5.20;;;;;;;;;;5069390;28;20365;-71
2023/04/15 08:05:34;;;;;;;8.23;4.40;;;;;;;;;;5069634;28;20044;-71
2023/04/15 08:08:00;;;;;;;7.85;4.80;;;;;;;;;;5070823;28;20068;-71
2023/04/15 08:10:26;;;;;;;6.88;4.72;;;;;;;;;;5052814;28;20109;-71
2023/04/15 08:12:53;;;;;;;7.00;4.50;;;;;;;;;;5069087;28;20032;-72
2023/04/15 08:15:19;;;;;;;6.20;4.30;;;;;;;;;;5069236;28;20488;-72
2023/04/15 08:17:45;;;;;;;6.50;4.32;;;;;;;;;;5035984;28;20278;-72
2023/04/15 08:20:12;;;;;;;5.85;3.90;;;;;;;;;;5070698;28;20049;-73
2023/04/15 08:22:38;;;;;;;7.05;3.97;;;;;;;;;;5069166;28;20499;-72
2023/04/15 08:25:04;;;;;;;;;;;;;;;;;;5053316;28;20090;-71
2023/04/15 08:27:30;;;;;;;8.10;4.10;;;;;;;;;;5068848;28;20288;-72
2023/04/15 08:29:57;;;;;;;9.02;4.57;;;;;;;;;;5068993;28;20040;-71
2023/04/15 08:32:25;;;;;;;;;;;;;;;;;;5069636;28;20070;-71
2023/04/15 08:34:52;;;;;;;7.03;3.45;;;;;;;;;;5068881;28;19920;-71
2023/04/15 08:37:18;;;;;;;5.78;2.90;;;;;;;;;;5070367;28;20052;-71
2023/04/15 08:39:44;;;;;;;4.32;3.10;;;;;;;;;;5068989;28;20051;-71
2023/04/15 08:42:16;;;;;;;4.88;2.53;;;;;;;;;;5102461;28;20044;-72
2023/04/15 08:44:43;;;;;;;7.20;2.63;;;;;;;;;;5068898;28;20041;-72
2023/04/15 08:47:11;;;;;;;6.60;2.60;;;;;;;;;;5068827;28;20045;-71
2023/04/15 08:49:40;;;;;;;5.35;2.70;;;;;;;;;;5072112;28;20133;-72
2023/04/15 08:52:06;;;;;;;3.83;2.50;;;;;;;;;;5072789;28;20059;-72
2023/04/15 08:54:32;;;;;;;;;;;;;;;;;;5107638;28;20048;-72
2023/04/15 08:56:58;;;;;;;4.68;2.20;;;;;;;;;;5055999;28;20283;-72
2023/04/15 08:59:25;;;;;;;5.65;2.08;;;;;;;;;;5072932;28;20048;-72
2023/04/15 09:01:51;;;;;;;5.30;2.10;;;;;;;;;;5056428;28;20509;-71
2023/04/15 09:04:17;;;;;;;;;;;;;;;;;;5072949;28;20450;-73
2023/04/15 09:06:43;;;;;;;4.75;1.70;;;;;;;;;;5072678;28;19920;-72
2023/04/15 09:09:09;;;;;;;5.03;2.42;;;;;;;;;;5106477;28;20048;-72
2023/04/15 09:11:35;;;;;;;3.95;1.88;;;;;;;;;;5072352;28;20044;-72
2023/04/15 09:14:02;;;;;;;3.30;1.60;;;;;;;;;;5072454;28;20210;-72
2023/04/15 09:16:28;;;;;;;3.17;1.90;;;;;;;;;;5056026;28;20056;-72
2023/04/15 09:18:54;;;;;;;6.00;3.45;;;;;;;;;;5055650;28;20488;-72
2023/04/15 09:21:22;;;;;;;5.43;2.35;;;;;;;;;;5072275;28;20036;-73
2023/04/15 09:23:56;;;;;;;5.95;1.80;;;;;;;;;;5072185;28;20465;-72
2023/04/15 09:26:36;;;;;;;5.18;1.75;;;;;;;;;;5072026;28;20045;-72
2023/04/15 09:29:05;;;;;;;4.47;1.70;;;;;;;;;;5072250;28;20043;-72
2023/04/15 09:31:31;;;;;;;4.93;1.80;;;;;;;;;;5071915;28;20045;-72
2023/04/15 09:33:58;;;;;;;2.83;1.60;;;;;;;;;;5072385;28;20124;-72
2023/04/15 09:36:24;;;;;;;4.07;1.60;;;;;;;;;;5055163;28;20520;-72
2023/04/15 09:38:50;;;;;;;;;;;;;;;;;;5055789;28;20051;-72
2023/04/15 09:41:19;;;;;;;3.78;1.70;;;;;;;;;;5071728;28;19928;-72
2023/04/15 09:43:45;;;;;;;3.53;1.35;;;;;;;;;;5072167;28;20044;-72
2023/04/15 09:46:11;;;;;;;6.57;1.92;;;;;;;;;;5072030;28;20147;-72
2023/04/15 09:48:37;;;;;;;4.05;1.30;;;;;;;;;;5073141;28;20768;-73
2023/04/15 09:51:04;;;;;;;3.97;1.45;;;;;;;;;;5071801;28;20062;-72
2023/04/15 09:53:32;;;;;;;3.10;1.50;;;;;;;;;;5071400;28;20052;-72
2023/04/15 09:56:02;;;;;;;4.00;1.50;;;;;;;;;;5071808;28;20506;-72
2023/04/15 09:58:29;;;;;;;2.28;1.27;;;;;;;;;;5071710;28;20143;-71
2023/04/15 10:00:56;;;;;;;2.78;1.38;;;;;;;;;;5072310;28;20135;-72
2023/04/15 10:03:22;;;;;;;1.95;0.95;;;;;;;;;;5071226;28;20036;-71
2023/04/15 10:05:50;;;;;;;2.45;1.05;;;;;;;;;;5071417;28;20094;-71
2023/04/15 10:08:34;;;;;;;1.60;1.10;;;;;;;;;;5071560;28;20045;-71
2023/04/15 10:11:01;;;;;;;3.25;1.20;;;;;;;;;;5054611;28;20044;-72
2023/04/15 10:13:32;;;;;;;2.60;1.17;;;;;;;;;;5071219;28;20083;-72
2023/04/15 10:16:11;;;;;;;2.40;1.15;;;;;;;;;;5054663;28;20047;-72
2023/04/15 10:18:43;;;;;;;3.72;1.33;;;;;;;;;;5070987;28;20051;-72
2023/04/15 10:21:09;;;;;;;2.60;1.15;;;;;;;;;;5070806;28;20047;-72
2023/04/15 10:23:35;;;;;;;2.88;1.45;;;;;;;;;;5072628;28;20036;-71
2023/04/15 10:26:01;;;;;;;;;;;;;;;;;;5071507;28;20076;-72
2023/04/15 10:28:28;;;;;;;3.28;1.38;;;;;;;;;;5070907;28;19962;-72
2023/04/15 10:30:54;;;;;;;2.97;1.38;;;;;;;;;;5072506;28;20083;-72
2023/04/15 10:33:21;;;;;;;2.90;1.23;;;;;;;;;;5071110;28;20053;-72
2023/04/15 10:35:49;;;;;;;4.80;1.50;;;;;;;;;;5104750;28;20526;-72
2023/04/15 10:38:34;;;;;;;4.32;1.45;;;;;;;;;;5054539;28;20052;-72
2023/04/15 10:41:19;;;;;;;3.40;1.45;;;;;;;;;;5070684;28;20502;-71
2023/04/15 10:43:47;;;;;;;3.85;1.60;;;;;;;;;;5054185;28;20472;-71
2023/04/15 10:46:16;;;;;;;3.67;1.70;;;;;;;;;;5070725;28;20050;-72
2023/04/15 10:48:52;;;;;;;4.45;1.77;;;;;;;;;;5070516;28;20117;-72
2023/04/15 10:51:31;;;;;;;3.00;1.90;;;;;;;;;;5053746;28;20139;-72
2023/04/15 10:53:58;;;;;;;3.72;1.50;;;;;;;;;;5054010;28;20384;-72
2023/04/15 10:56:25;;;;;;;7.38;1.83;;;;;;;;;;5070966;28;20125;-72
2023/04/15 10:58:51;;;;;;;;;;;;;;;;;;5070809;28;20099;-72
2023/04/15 11:01:20;;;;;;;5.20;1.98;;;;;;;;;;5070211;28;19928;-72
2023/04/15 11:03:46;;;;;;;4.57;1.83;;;;;;;;;;5070163;28;20041;-72
2023/04/15 11:06:12;;;;;;;;;;;;;;;;;;5070952;28;20043;-72
2023/04/15 11:09:01;;;;;;;4.45;1.83;;;;;;;;;;5104091;28;20007;-72
2023/04/15 11:11:46;;;;;;;6.18;1.80;;;;;;;;;;5069125;28;20052;-72
2023/04/15 11:14:16;;;;;;;4.13;1.58;;;;;;;;;;5070176;28;20063;-72
2023/04/15 11:16:46;;;;;;;5.43;1.75;;;;;;;;;;5069948;28;20127;-72
2023/04/15 11:19:12;;;;;;;5.13;1.50;;;;;;;;;;5070296;28;20044;-72
2023/04/15 11:21:38;;;;;;;6.57;2.00;;;;;;;;;;5069856;28;20186;-72
2023/04/15 11:24:04;;;;;;;;;;;;;;;;;;5070541;28;20053;-72
2023/04/15 11:26:31;;;;;;;3.97;1.30;;;;;;;;;;5053415;28;20356;-72
2023/04/15 11:28:58;;;;;;;6.65;1.52;;;;;;;;;;5053229;28;20094;-72
2023/04/15 11:31:27;;;;;;;3.55;1.20;;;;;;;;;;5053552;28;20086;-72
2023/04/15 11:33:53;;;;;;;5.97;1.33;;;;;;;;;;5069843;28;20466;-72
2023/04/15 11:36:19;;;;;;;4.03;1.50;;;;;;;;;;5069747;28;20052;-72
2023/04/15 11:38:48;;;;;;;6.63;1.58;;;;;;;;;;5069588;28;20044;-72
2023/04/15 11:41:14;;;;;;;4.43;1.65;;;;;;;;;;5071100;28;20047;-72
2023/04/15 11:43:40;;;;;;;4.72;1.48;;;;;;;;;;5069568;28;20050;-72
2023/04/15 11:46:07;;;;;;;4.18;1.48;;;;;;;;;;5069907;28;20337;-72
2023/04/15 11:48:34;;;;;;;3.63;1.40;;;;;;;;;;5069658;28;20128;-72
2023/04/15 11:51:07;;;;;;;3.17;1.30;;;;;;;;;;5103339;28;20127;-72
2023/04/15 11:53:36;;;;;;;3.85;1.40;;;;;;;;;;5069609;28;20469;-72
2023/04/15 11:56:02;;;;;;;4.03;1.35;;;;;;;;;;5052774;28;20040;-72
2023/04/15 11:58:30;;;;;;;7.05;1.58;;;;;;;;;;5069171;28;20105;-72
2023/04/15 12:00:57;;;;;;;6.05;1.50;;;;;;;;;;5069412;28;20055;-71
2023/04/15 12:03:25;;;;;;;5.80;1.30;;;;;;;;;;5052554;28;20128;-71
2023/04/15 12:06:15;;;;;;;8.57;1.65;;;;;;;;;;5052557;28;20048;-72
2023/04/15 12:09:07;;;;;;;6.05;1.60;;;;;;;;;;5069237;28;20040;-72
2023/04/15 12:11:35;;;;;;;7.32;1.80;;;;;;;;;;5066977;28;20128;-73
2023/04/15 12:14:06;;;;;;;7.75;1.70;;;;;;;;;;5069175;28;20492;-72
2023/04/15 12:16:33;;;;;;;3.90;1.30;;;;;;;;;;5068864;28;20054;-72
2023/04/15 12:18:59;;;;;;;7.57;1.60;;;;;;;;;;5052405;28;20048;-73
2023/04/15 12:21:27;;;;;;;5.65;1.50;;;;;;;;;;5052189;28;20485;-72
2023/04/15 12:23:54;;;;;;;6.35;1.70;;;;;;;;;;5068772;28;20479;-72
2023/04/15 12:26:31;;;;;;;5.13;1.40;;;;;;;;;;5102925;28;20036;-72
2023/04/15 12:28:57;;;;;;;;;;;;;;;;;;5069537;28;20045;-72
2023/04/15 12:31:23;;;;;;;6.15;1.33;;;;;;;;;;5051911;28;20295;-72
2023/04/15 12:33:50;;;;;;;7.07;1.35;;;;;;;;;;5069114;28;20082;-72
2023/04/15 12:36:16;;;;;;;5.13;1.30;;;;;;;;;;5068377;28;20625;-72
2023/04/15 12:38:42;;;;;;;6.55;1.60;;;;;;;;;;5068816;28;20487;-71
2023/04/15 12:41:08;;;;;;;6.53;1.40;;;;;;;;;;5102618;28;20350;-72
2023/04/15 12:43:34;;;;;;;4.88;1.42;;;;;;;;;;5070047;28;20121;-72
2023/04/15 12:46:01;;;;;;;5.72;1.35;;;;;;;;;;5052267;28;20157;-72
2023/04/15 12:48:27;;;;;;;5.55;1.40;;;;;;;;;;5068412;28;20076;-72
2023/04/15 12:50:53;;;;;;;5.85;1.40;;;;;;;;;;5102746;28;20392;-72
2023/04/15 12:53:20;;;;;;;4.57;1.48;;;;;;;;;;5102616;28;20048;-72
2023/04/15 12:55:46;;;;;;;6.65;1.40;;;;;;;;;;5068760;28;20049;-72
2023/04/15 12:58:12;;;;;;;6.18;1.10;;;;;;;;;;5068908;28;20127;-72
2023/04/15 13:00:38;;;;;;;5.90;1.27;;;;;;;;;;5068515;28;20053;-73
2023/04/15 13:03:04;;;;;;;6.78;1.40;;;;;;;;;;5051906;28;20435;-72
2023/04/15 13:05:31;;;;;;;7.43;1.38;;;;;;;;;;5068557;28;20040;-72
2023/04/15 13:07:57;;;;;;;8.75;1.67;;;;;;;;;;5051870;28;20056;-72
2023/04/15 13:10:23;;;;;;;5.35;1.50;;;;;;;;;;5069808;28;20551;-72
2023/04/15 13:12:52;;;;;;;5.63;1.33;;;;;;;;;;5052025;28;20119;-72
2023/04/15 13:15:19;;;;;;;4.15;1.02;;;;;;;;;;5068376;28;20164;-72
2023/04/15 13:17:45;;;;;;;4.70;1.17;;;;;;;;;;5052247;28;20123;-72
2023/04/15 13:20:11;;;;;;;4.55;1.05;;;;;;;;;;5068770;28;20545;-72
2023/04/15 13:22:37;;;;;;;6.13;1.67;;;;;;;;;;5068197;28;20040;-71
2023/04/15 13:25:04;;;;;;;6.03;1.27;;;;;;;;;;5068494;28;20476;-72
2023/04/15 13:27:30;;;;;;;;;;;;;;;;;;5068654;28;20492;-71
2023/04/15 13:29:56;;;;;;;7.47;1.40;;;;;;;;;;5068377;28;19927;-72
2023/04/15 13:32:22;;;;;;;4.10;0.90;;;;;;;;;;5068227;28;20076;-72
2023/04/15 13:34:49;;;;;;;5.75;1.38;;;;;;;;;;5069845;28;20055;-71
2023/04/15 13:37:15;;;;;;;4.97;1.10;;;;;;;;;;5072116;28;20091;-71
2023/04/15 13:39:41;;;;;;;3.58;1.00;;;;;;;;;;5055340;28;20044;-72
2023/04/15 13:42:07;;;;;;;6.82;1.30;;;;;;;;;;5071456;28;20036;-71
2023/04/15 13:44:33;;;;;;;6.22;1.10;;;;;;;;;;5071928;28;20041;-71
2023/04/15 13:46:59;;;;;;;7.53;1.48;;;;;;;;;;5055413;28;20124;-72
2023/04/15 13:49:25;;;;;;;9.02;1.65;;;;;;;;;;5055102;28;20053;-71
2023/04/15 13:51:51;;;;;;;6.40;1.38;;;;;;;;;;5071764;28;20052;-71
2023/04/15 13:54:17;;;;;;;4.25;1.25;;;;;;;;;;5071963;28;20052;-71
2023/04/15 13:56:43;;;;;;;5.35;1.67;;;;;;;;;;5071648;28;20044;-72
2023/04/15 13:59:09;;;;;;;3.45;1.20;;;;;;;;;;5071771;28;20131;-72
2023/04/15 14:01:35;;;;;;;6.95;1.50;;;;;;;;;;5071537;28;20448;-71
2023/04/15 14:04:01;;;;;;;5.75;1.48;;;;;;;;;;5071493;28;20052;-70
2023/04/15 14:06:28;;;;;;;6.88;1.55;;;;;;;;;;5071305;28;20044;-71
2023/04/15 14:08:54;;;;;;;;;;;;;;;;;;5055599;28;20140;-73
2023/04/15 14:11:20;;;;;;;6.65;1.77;;;;;;;;;;5071458;28;19920;-73
2023/04/15 14:13:46;;;;;;;4.88;1.42;;;;;;;;;;5071505;28;20044;-73
2023/04/15 14:16:12;;;;;;;9.30;2.25;;;;;;;;;;5071318;28;20483;-73
2023/04/15 14:18:39;;;;;;;7.18;2.55;;;;;;;;;;5071381;28;20056;-72
2023/04/15 14:21:06;;;;;;;7.32;2.33;;;;;;;;;;5071367;28;20404;-73
2023/04/15 14:23:32;;;;;;;5.10;1.63;;;;;;;;;;5054708;28;20399;-72
2023/04/15 14:25:58;;;;;;;;;;;;;;;;;;5071648;28;20063;-72
2023/04/15 14:28:24;;;;;;;5.70;1.40;;;;;;;;;;5054201;28;20003;-72
2023/04/15 14:30:50;;;;;;;;;;;;;;;;;;5071566;28;20040;-72
2023/04/15 14:33:16;;;;;;;6.72;1.58;;;;;;;;;;5070936;28;19921;-72
2023/04/15 14:35:43;;;;;;;7.20;1.90;;;;;;;;;;5038006;28;20125;-72
2023/04/15 14:38:09;;;;;;;6.18;1.70;;;;;;;;;;5072296;28;20128;-72
2023/04/15 14:40:36;;;;;;;7.97;1.73;;;;;;;;;;5071041;28;20040;-72
2023/04/15 14:43:02;;;;;;;10.27;1.73;;;;;;;;;;5070960;28;20399;-72
2023/04/15 14:45:28;;;;;;;;;;;;;;;;;;5071398;28;20415;-72
2023/04/15 14:47:54;;;;;;;9.98;1.90;;;;;;;;;;5104941;28;19916;-72
2023/04/15 14:50:20;;;;;;;8.30;2.05;;;;;;;;;;5070367;28;20049;-72